sensor_id;sensor_type;location;lat;lon;timestamp;P1;durP1;ratioP1;P2;durP2;ratioP2
9976;SDS011;5029;47.378;11.776;2022-07-29T00:04:02;5.17;;;3.20;;
9976;SDS011;5029;47.378;11.776;2022-07-29T00:09:05;4.00;;;3.67;;
9976;SDS011;5029;47.378;11.776;2022-07-29T00:14:09;4.07;;;3.50;;
9976;SDS011;5029;47.378;11.776;2022-07-29T00:19:15;3.73;;;3.30;;
9976;SDS011;5029;47.378;11.776;2022-07-29T00:24:18;3.13;;;2.93;;
9976;SDS011;5029;47.378;11.776;2022-07-29T00:29:22;4.50;;;2.40;;
9976;SDS011;5029;47.378;11.776;2022-07-29T00:34:36;2.87;;;2.40;;
9976;SDS011;5029;47.378;11.776;2022-07-29T00:39:57;3.20;;;1.97;;
9976;SDS011;5029;47.378;11.776;2022-07-29T00:45:00;2.53;;;2.33;;
9976;SDS011;5029;47.378;11.776;2022-07-29T00:50:06;3.80;;;2.30;;
9976;SDS011;5029;47.378;11.776;2022-07-29T00:55:11;4.00;;;2.40;;
9976;SDS011;5029;47.378;11.776;2022-07-29T01:00:18;3.27;;;2.53;;
9976;SDS011;5029;47.378;11.776;2022-07-29T01:05:25;5.27;;;2.67;;
9976;SDS011;5029;47.378;11.776;2022-07-29T01:10:50;3.03;;;2.53;;
9976;SDS011;5029;47.378;11.776;2022-07-29T01:15:56;2.60;;;2.40;;
9976;SDS011;5029;47.378;11.776;2022-07-29T01:21:23;2.53;;;2.33;;
9976;SDS011;5029;47.378;11.776;2022-07-29T01:26:43;5.60;;;2.80;;
9976;SDS011;5029;47.378;11.776;2022-07-29T01:31:54;5.20;;;2.70;;
9976;SDS011;5029;47.378;11.776;2022-07-29T01:37:03;2.73;;;2.53;;
9976;SDS011;5029;47.378;11.776;2022-07-29T01:42:15;2.60;;;2.20;;
9976;SDS011;5029;47.378;11.776;2022-07-29T01:47:31;5.63;;;2.50;;
9976;SDS011;5029;47.378;11.776;2022-07-29T01:52:41;2.47;;;2.27;;
9976;SDS011;5029;47.378;11.776;2022-07-29T01:57:49;2.47;;;2.27;;
9976;SDS011;5029;47.378;11.776;2022-07-29T02:02:54;3.70;;;2.57;;
9976;SDS011;5029;47.378;11.776;2022-07-29T02:07:59;3.60;;;2.60;;
9976;SDS011;5029;47.378;11.776;2022-07-29T02:13:04;2.63;;;2.43;;
9976;SDS011;5029;47.378;11.776;2022-07-29T02:18:13;2.60;;;2.40;;
9976;SDS011;5029;47.378;11.776;2022-07-29T02:23:19;2.60;;;2.40;;
9976;SDS011;5029;47.378;11.776;2022-07-29T02:28:25;2.47;;;2.27;;
9976;SDS011;5029;47.378;11.776;2022-07-29T02:33:33;2.93;;;2.30;;
9976;SDS011;5029;47.378;11.776;2022-07-29T02:38:38;2.43;;;2.20;;
9976;SDS011;5029;47.378;11.776;2022-07-29T02:44:02;3.43;;;2.10;;
9976;SDS011;5029;47.378;11.776;2022-07-29T02:49:12;2.30;;;2.10;;
9976;SDS011;5029;47.378;11.776;2022-07-29T02:54:21;3.73;;;2.00;;
9976;SDS011;5029;47.378;11.776;2022-07-29T02:59:28;2.80;;;2.20;;
9976;SDS011;5029;47.378;11.776;2022-07-29T03:04:38;2.60;;;2.40;;
9976;SDS011;5029;47.378;11.776;2022-07-29T03:09:44;2.63;;;2.33;;
9976;SDS011;5029;47.378;11.776;2022-07-29T03:14:48;3.93;;;2.40;;
9976;SDS011;5029;47.378;11.776;2022-07-29T03:19:53;3.30;;;2.20;;
9976;SDS011;5029;47.378;11.776;2022-07-29T03:25:03;2.50;;;2.30;;
9976;SDS011;5029;47.378;11.776;2022-07-29T03:30:11;2.30;;;2.10;;
9976;SDS011;5029;47.378;11.776;2022-07-29T03:35:23;2.57;;;2.27;;
9976;SDS011;5029;47.378;11.776;2022-07-29T03:40:27;2.40;;;2.20;;
9976;SDS011;5029;47.378;11.776;2022-07-29T03:45:34;2.30;;;2.10;;
9976;SDS011;5029;47.378;11.776;2022-07-29T03:50:39;3.50;;;3.20;;
9976;SDS011;5029;47.378;11.776;2022-07-29T03:55:45;3.23;;;2.93;;
9976;SDS011;5029;47.378;11.776;2022-07-29T04:00:51;3.20;;;2.90;;
9976;SDS011;5029;47.378;11.776;2022-07-29T04:06:03;3.83;;;2.40;;
9976;SDS011;5029;47.378;11.776;2022-07-29T04:11:09;3.10;;;2.90;;
9976;SDS011;5029;47.378;11.776;2022-07-29T04:16:13;2.80;;;2.43;;
9976;SDS011;5029;47.378;11.776;2022-07-29T04:21:18;4.53;;;2.67;;
9976;SDS011;5029;47.378;11.776;2022-07-29T04:26:21;3.67;;;1.97;;
9976;SDS011;5029;47.378;11.776;2022-07-29T04:31:25;3.50;;;2.50;;
9976;SDS011;5029;47.378;11.776;2022-07-29T04:36:30;2.60;;;2.40;;
9976;SDS011;5029;47.378;11.776;2022-07-29T04:41:33;3.40;;;2.40;;
9976;SDS011;5029;47.378;11.776;2022-07-29T04:46:36;4.57;;;2.97;;
9976;SDS011;5029;47.378;11.776;2022-07-29T04:51:42;4.10;;;3.20;;
9976;SDS011;5029;47.378;11.776;2022-07-29T04:56:45;4.00;;;3.70;;
9976;SDS011;5029;47.378;11.776;2022-07-29T05:01:49;4.13;;;3.60;;
9976;SDS011;5029;47.378;11.776;2022-07-29T05:06:54;4.20;;;3.80;;
9976;SDS011;5029;47.378;11.776;2022-07-29T05:11:57;3.93;;;3.63;;
9976;SDS011;5029;47.378;11.776;2022-07-29T05:17:01;3.90;;;3.30;;
9976;SDS011;5029;47.378;11.776;2022-07-29T05:22:06;4.43;;;3.70;;
9976;SDS011;5029;47.378;11.776;2022-07-29T05:27:09;3.70;;;3.40;;
9976;SDS011;5029;47.378;11.776;2022-07-29T05:32:13;4.97;;;3.83;;
9976;SDS011;5029;47.378;11.776;2022-07-29T05:37:17;3.20;;;2.90;;
9976;SDS011;5029;47.378;11.776;2022-07-29T05:42:21;4.10;;;3.70;;
9976;SDS011;5029;47.378;11.776;2022-07-29T05:47:25;3.67;;;3.10;;
9976;SDS011;5029;47.378;11.776;2022-07-29T05:52:30;4.57;;;3.10;;
9976;SDS011;5029;47.378;11.776;2022-07-29T05:57:33;3.33;;;3.07;;
9976;SDS011;5029;47.378;11.776;2022-07-29T06:02:36;3.87;;;2.97;;
9976;SDS011;5029;47.378;11.776;2022-07-29T06:07:41;2.90;;;2.70;;
9976;SDS011;5029;47.378;11.776;2022-07-29T06:12:51;3.50;;;2.83;;
9976;SDS011;5029;47.378;11.776;2022-07-29T06:17:55;2.70;;;2.50;;
9976;SDS011;5029;47.378;11.776;2022-07-29T06:23:02;2.93;;;2.73;;
9976;SDS011;5029;47.378;11.776;2022-07-29T06:28:06;3.40;;;3.10;;
9976;SDS011;5029;47.378;11.776;2022-07-29T06:33:14;3.00;;;2.73;;
9976;SDS011;5029;47.378;11.776;2022-07-29T06:38:21;2.60;;;2.40;;
9976;SDS011;5029;47.378;11.776;2022-07-29T06:43:35;3.87;;;3.00;;
9976;SDS011;5029;47.378;11.776;2022-07-29T06:48:52;4.50;;;3.60;;
9976;SDS011;5029;47.378;11.776;2022-07-29T06:53:57;2.83;;;2.63;;
9976;SDS011;5029;47.378;11.776;2022-07-29T06:59:03;3.43;;;2.80;;
9976;SDS011;5029;47.378;11.776;2022-07-29T07:04:08;2.83;;;2.53;;
9976;SDS011;5029;47.378;11.776;2022-07-29T07:09:13;2.80;;;2.60;;
9976;SDS011;5029;47.378;11.776;2022-07-29T07:14:17;3.50;;;2.10;;
9976;SDS011;5029;47.378;11.776;2022-07-29T07:19:21;2.70;;;2.50;;
9976;SDS011;5029;47.378;11.776;2022-07-29T07:24:27;3.13;;;2.60;;
9976;SDS011;5029;47.378;11.776;2022-07-29T07:29:31;2.40;;;2.20;;
9976;SDS011;5029;47.378;11.776;2022-07-29T07:34:34;2.27;;;2.10;;
9976;SDS011;5029;47.378;11.776;2022-07-29T07:39:40;2.10;;;2.00;;
9976;SDS011;5029;47.378;11.776;2022-07-29T07:44:44;2.20;;;2.00;;
9976;SDS011;5029;47.378;11.776;2022-07-29T07:50:10;2.83;;;2.00;;
9976;SDS011;5029;47.378;11.776;2022-07-29T07:55:21;1.87;;;1.77;;
9976;SDS011;5029;47.378;11.776;2022-07-29T08:00:24;2.40;;;2.10;;
9976;SDS011;5029;47.378;11.776;2022-07-29T08:05:28;2.40;;;1.60;;
9976;SDS011;5029;47.378;11.776;2022-07-29T08:10:33;1.70;;;1.60;;
9976;SDS011;5029;47.378;11.776;2022-07-29T08:15:55;1.73;;;1.63;;
9976;SDS011;5029;47.378;11.776;2022-07-29T08:21:01;3.50;;;1.70;;
9976;SDS011;5029;47.378;11.776;2022-07-29T08:26:07;2.00;;;1.80;;
9976;SDS011;5029;47.378;11.776;2022-07-29T08:31:12;1.80;;;1.70;;
9976;SDS011;5029;47.378;11.776;2022-07-29T08:36:16;2.80;;;1.60;;
9976;SDS011;5029;47.378;11.776;2022-07-29T08:41:20;2.13;;;1.60;;
9976;SDS011;5029;47.378;11.776;2022-07-29T08:46:24;1.50;;;1.40;;
9976;SDS011;5029;47.378;11.776;2022-07-29T08:51:28;2.30;;;2.07;;
9976;SDS011;5029;47.378;11.776;2022-07-29T08:56:34;2.10;;;1.90;;
9976;SDS011;5029;47.378;11.776;2022-07-29T09:01:38;2.50;;;1.70;;
9976;SDS011;5029;47.378;11.776;2022-07-29T09:06:47;2.10;;;1.90;;
9976;SDS011;5029;47.378;11.776;2022-07-29T09:11:55;1.50;;;1.40;;
9976;SDS011;5029;47.378;11.776;2022-07-29T09:16:59;1.73;;;1.63;;
9976;SDS011;5029;47.378;11.776;2022-07-29T09:22:04;1.77;;;1.63;;
9976;SDS011;5029;47.378;11.776;2022-07-29T09:27:18;2.17;;;1.70;;
9976;SDS011;5029;47.378;11.776;2022-07-29T09:32:23;1.60;;;1.50;;
9976;SDS011;5029;47.378;11.776;2022-07-29T09:37:27;1.83;;;1.50;;
9976;SDS011;5029;47.378;11.776;2022-07-29T09:42:32;2.90;;;1.53;;
9976;SDS011;5029;47.378;11.776;2022-07-29T09:47:46;1.97;;;1.70;;
9976;SDS011;5029;47.378;11.776;2022-07-29T09:52:51;1.70;;;1.60;;
9976;SDS011;5029;47.378;11.776;2022-07-29T09:57:57;2.07;;;1.67;;
9976;SDS011;5029;47.378;11.776;2022-07-29T10:03:19;3.13;;;1.60;;
9976;SDS011;5029;47.378;11.776;2022-07-29T10:08:24;1.40;;;1.30;;
9976;SDS011;5029;47.378;11.776;2022-07-29T10:13:30;1.45;;;1.25;;
9976;SDS011;5029;47.378;11.776;2022-07-29T10:18:33;1.57;;;1.20;;
9976;SDS011;5029;47.378;11.776;2022-07-29T10:23:37;1.38;;;1.27;;
9976;SDS011;5029;47.378;11.776;2022-07-29T10:28:49;1.65;;;1.55;;
9976;SDS011;5029;47.378;11.776;2022-07-29T10:33:55;2.03;;;1.38;;
9976;SDS011;5029;47.378;11.776;2022-07-29T10:39:10;1.40;;;1.30;;
9976;SDS011;5029;47.378;11.776;2022-07-29T10:44:24;1.35;;;1.25;;
9976;SDS011;5029;47.378;11.776;2022-07-29T10:49:29;1.48;;;1.30;;
9976;SDS011;5029;47.378;11.776;2022-07-29T11:05:30;2.35;;;1.60;;
9976;SDS011;5029;47.378;11.776;2022-07-29T11:22:30;2.40;;;1.60;;
9976;SDS011;5029;47.378;11.776;2022-07-29T11:27:35;1.92;;;1.83;;
9976;SDS011;5029;47.378;11.776;2022-07-29T11:32:42;3.28;;;2.00;;
9976;SDS011;5029;47.378;11.776;2022-07-29T11:38:23;1.73;;;1.63;;
9976;SDS011;5029;47.378;11.776;2022-07-29T11:43:45;2.20;;;1.80;;
9976;SDS011;5029;47.378;11.776;2022-07-29T11:49:10;2.28;;;1.60;;
9976;SDS011;5029;47.378;11.776;2022-07-29T11:54:16;2.53;;;1.70;;
9976;SDS011;5029;47.378;11.776;2022-07-29T11:59:27;1.77;;;1.67;;
9976;SDS011;5029;47.378;11.776;2022-07-29T12:04:46;2.55;;;1.70;;
9976;SDS011;5029;47.378;11.776;2022-07-29T12:09:52;3.88;;;1.70;;
9976;SDS011;5029;47.378;11.776;2022-07-29T12:14:57;2.05;;;1.90;;
9976;SDS011;5029;47.378;11.776;2022-07-29T12:20:04;2.38;;;1.90;;
9976;SDS011;5029;47.378;11.776;2022-07-29T12:25:09;2.20;;;2.00;;
9976;SDS011;5029;47.378;11.776;2022-07-29T12:30:35;3.70;;;1.67;;
9976;SDS011;5029;47.378;11.776;2022-07-29T12:35:49;1.90;;;1.75;;
9976;SDS011;5029;47.378;11.776;2022-07-29T12:41:07;1.90;;;1.70;;
9976;SDS011;5029;47.378;11.776;2022-07-29T12:46:12;2.28;;;1.63;;
9976;SDS011;5029;47.378;11.776;2022-07-29T12:51:18;1.60;;;1.50;;
9976;SDS011;5029;47.378;11.776;2022-07-29T12:56:31;1.70;;;1.60;;
9976;SDS011;5029;47.378;11.776;2022-07-29T13:01:44;2.05;;;1.73;;
9976;SDS011;5029;47.378;11.776;2022-07-29T13:06:57;2.15;;;1.95;;
9976;SDS011;5029;47.378;11.776;2022-07-29T13:12:05;4.10;;;2.10;;
9976;SDS011;5029;47.378;11.776;2022-07-29T13:17:12;2.15;;;1.90;;
9976;SDS011;5029;47.378;11.776;2022-07-29T13:22:20;2.20;;;2.00;;
9976;SDS011;5029;47.378;11.776;2022-07-29T13:27:25;1.95;;;1.75;;
9976;SDS011;5029;47.378;11.776;2022-07-29T13:32:30;4.22;;;1.63;;
9976;SDS011;5029;47.378;11.776;2022-07-29T13:37:37;2.15;;;1.95;;
9976;SDS011;5029;47.378;11.776;2022-07-29T13:42:41;2.53;;;1.80;;
9976;SDS011;5029;47.378;11.776;2022-07-29T13:47:45;2.15;;;1.55;;
9976;SDS011;5029;47.378;11.776;2022-07-29T13:52:51;1.80;;;1.70;;
9976;SDS011;5029;47.378;11.776;2022-07-29T13:57:55;1.75;;;1.60;;
9976;SDS011;5029;47.378;11.776;2022-07-29T14:02:58;4.43;;;1.70;;
9976;SDS011;5029;47.378;11.776;2022-07-29T14:08:03;2.85;;;1.83;;
9976;SDS011;5029;47.378;11.776;2022-07-29T14:13:07;1.77;;;1.67;;
9976;SDS011;5029;47.378;11.776;2022-07-29T14:18:26;2.00;;;1.90;;
9976;SDS011;5029;47.378;11.776;2022-07-29T14:23:31;4.95;;;2.00;;
9976;SDS011;5029;47.378;11.776;2022-07-29T14:29:07;1.95;;;1.80;;
9976;SDS011;5029;47.378;11.776;2022-07-29T14:34:11;2.70;;;1.58;;
9976;SDS011;5029;47.378;11.776;2022-07-29T14:39:18;2.00;;;1.70;;
9976;SDS011;5029;47.378;11.776;2022-07-29T14:44:21;1.65;;;1.55;;
9976;SDS011;5029;47.378;11.776;2022-07-29T14:49:25;2.03;;;1.83;;
9976;SDS011;5029;47.378;11.776;2022-07-29T14:54:30;2.47;;;1.92;;
9976;SDS011;5029;47.378;11.776;2022-07-29T14:59:34;1.77;;;1.65;;
9976;SDS011;5029;47.378;11.776;2022-07-29T15:04:37;2.33;;;2.13;;
9976;SDS011;5029;47.378;11.776;2022-07-29T15:09:42;2.08;;;1.70;;
9976;SDS011;5029;47.378;11.776;2022-07-29T15:14:50;2.25;;;2.05;;
9976;SDS011;5029;47.378;11.776;2022-07-29T15:19:53;3.65;;;2.22;;
9976;SDS011;5029;47.378;11.776;2022-07-29T15:24:59;4.05;;;2.92;;
9976;SDS011;5029;47.378;11.776;2022-07-29T15:30:02;6.53;;;3.93;;
9976;SDS011;5029;47.378;11.776;2022-07-29T15:35:06;8.67;;;4.33;;
9976;SDS011;5029;47.378;11.776;2022-07-29T15:40:13;6.93;;;4.00;;
9976;SDS011;5029;47.378;11.776;2022-07-29T15:45:16;5.40;;;3.80;;
9976;SDS011;5029;47.378;11.776;2022-07-29T15:50:20;4.20;;;3.17;;
9976;SDS011;5029;47.378;11.776;2022-07-29T15:55:27;4.53;;;3.40;;
9976;SDS011;5029;47.378;11.776;2022-07-29T16:00:32;4.87;;;2.63;;
9976;SDS011;5029;47.378;11.776;2022-07-29T16:05:38;3.67;;;2.13;;
9976;SDS011;5029;47.378;11.776;2022-07-29T16:10:43;2.40;;;2.00;;
9976;SDS011;5029;47.378;11.776;2022-07-29T16:15:47;3.47;;;2.50;;
9976;SDS011;5029;47.378;11.776;2022-07-29T16:21:03;2.87;;;2.03;;
9976;SDS011;5029;47.378;11.776;2022-07-29T16:26:08;4.87;;;2.00;;
9976;SDS011;5029;47.378;11.776;2022-07-29T16:31:12;2.30;;;2.10;;
9976;SDS011;5029;47.378;11.776;2022-07-29T16:36:16;5.67;;;2.90;;
9976;SDS011;5029;47.378;11.776;2022-07-29T16:41:21;4.03;;;2.60;;
9976;SDS011;5029;47.378;11.776;2022-07-29T16:46:24;4.83;;;2.80;;
9976;SDS011;5029;47.378;11.776;2022-07-29T16:51:28;3.13;;;2.50;;
9976;SDS011;5029;47.378;11.776;2022-07-29T16:56:33;4.53;;;2.40;;
9976;SDS011;5029;47.378;11.776;2022-07-29T17:01:36;3.53;;;2.23;;
9976;SDS011;5029;47.378;11.776;2022-07-29T17:06:40;3.50;;;2.20;;
9976;SDS011;5029;47.378;11.776;2022-07-29T17:11:45;3.03;;;2.17;;
9976;SDS011;5029;47.378;11.776;2022-07-29T17:16:56;3.00;;;1.80;;
9976;SDS011;5029;47.378;11.776;2022-07-29T17:22:03;2.27;;;1.20;;
9976;SDS011;5029;47.378;11.776;2022-07-29T17:27:20;2.07;;;1.40;;
9976;SDS011;5029;47.378;11.776;2022-07-29T17:32:23;1.60;;;1.10;;
9976;SDS011;5029;47.378;11.776;2022-07-29T17:37:27;1.17;;;1.07;;
9976;SDS011;5029;47.378;11.776;2022-07-29T17:42:32;1.43;;;1.13;;
9976;SDS011;5029;47.378;11.776;2022-07-29T17:47:35;2.17;;;1.70;;
9976;SDS011;5029;47.378;11.776;2022-07-29T17:52:39;1.60;;;1.17;;
9976;SDS011;5029;47.378;11.776;2022-07-29T17:57:44;1.30;;;1.20;;
9976;SDS011;5029;47.378;11.776;2022-07-29T18:02:51;1.97;;;1.50;;
9976;SDS011;5029;47.378;11.776;2022-07-29T18:07:55;2.73;;;1.43;;
9976;SDS011;5029;47.378;11.776;2022-07-29T18:13:01;1.50;;;1.40;;
9976;SDS011;5029;47.378;11.776;2022-07-29T18:18:04;3.83;;;1.37;;
9976;SDS011;5029;47.378;11.776;2022-07-29T18:23:11;1.47;;;1.33;;
9976;SDS011;5029;47.378;11.776;2022-07-29T18:28:17;1.80;;;1.40;;
9976;SDS011;5029;47.378;11.776;2022-07-29T18:33:23;1.80;;;1.63;;
9976;SDS011;5029;47.378;11.776;2022-07-29T18:38:27;1.70;;;1.60;;
9976;SDS011;5029;47.378;11.776;2022-07-29T18:43:32;1.93;;;1.73;;
9976;SDS011;5029;47.378;11.776;2022-07-29T18:48:38;3.40;;;1.70;;
9976;SDS011;5029;47.378;11.776;2022-07-29T18:53:44;3.47;;;1.80;;
9976;SDS011;5029;47.378;11.776;2022-07-29T19:04:25;2.70;;;2.50;;
9976;SDS011;5029;47.378;11.776;2022-07-29T19:09:29;3.50;;;2.30;;
9976;SDS011;5029;47.378;11.776;2022-07-29T19:15:08;5.60;;;2.53;;
9976;SDS011;5029;47.378;11.776;2022-07-29T19:20:20;2.60;;;2.40;;
9976;SDS011;5029;47.378;11.776;2022-07-29T19:25:24;2.40;;;2.20;;
9976;SDS011;5029;47.378;11.776;2022-07-29T19:30:29;2.60;;;2.10;;
9976;SDS011;5029;47.378;11.776;2022-07-29T19:35:38;2.20;;;2.00;;
9976;SDS011;5029;47.378;11.776;2022-07-29T19:40:57;2.97;;;2.60;;
9976;SDS011;5029;47.378;11.776;2022-07-29T19:46:09;3.73;;;2.67;;
9976;SDS011;5029;47.378;11.776;2022-07-29T19:51:13;3.23;;;3.03;;
9976;SDS011;5029;47.378;11.776;2022-07-29T19:56:17;3.13;;;2.70;;
9976;SDS011;5029;47.378;11.776;2022-07-29T20:01:22;2.77;;;2.47;;
9976;SDS011;5029;47.378;11.776;2022-07-29T20:06:26;3.17;;;2.67;;
9976;SDS011;5029;47.378;11.776;2022-07-29T20:11:29;3.90;;;2.63;;
9976;SDS011;5029;47.378;11.776;2022-07-29T20:16:39;3.10;;;2.80;;
9976;SDS011;5029;47.378;11.776;2022-07-29T20:21:46;3.23;;;2.63;;
9976;SDS011;5029;47.378;11.776;2022-07-29T20:26:49;5.07;;;2.80;;
9976;SDS011;5029;47.378;11.776;2022-07-29T20:31:55;3.50;;;3.20;;
9976;SDS011;5029;47.378;11.776;2022-07-29T20:36:59;4.53;;;3.00;;
9976;SDS011;5029;47.378;11.776;2022-07-29T20:42:03;3.20;;;2.90;;
9976;SDS011;5029;47.378;11.776;2022-07-29T20:47:09;4.40;;;3.00;;
9976;SDS011;5029;47.378;11.776;2022-07-29T20:52:12;3.00;;;2.70;;
9976;SDS011;5029;47.378;11.776;2022-07-29T20:57:17;3.43;;;2.90;;
9976;SDS011;5029;47.378;11.776;2022-07-29T21:02:41;3.57;;;3.10;;
9976;SDS011;5029;47.378;11.776;2022-07-29T21:07:51;4.13;;;3.20;;
9976;SDS011;5029;47.378;11.776;2022-07-29T21:12:58;4.17;;;2.90;;
9976;SDS011;5029;47.378;11.776;2022-07-29T21:18:05;4.10;;;2.70;;
9976;SDS011;5029;47.378;11.776;2022-07-29T21:23:26;2.40;;;2.10;;
9976;SDS011;5029;47.378;11.776;2022-07-29T21:28:32;2.90;;;2.57;;
9976;SDS011;5029;47.378;11.776;2022-07-29T21:33:42;2.67;;;2.40;;
9976;SDS011;5029;47.378;11.776;2022-07-29T21:38:47;2.47;;;2.27;;
9976;SDS011;5029;47.378;11.776;2022-07-29T21:43:50;5.40;;;2.60;;
9976;SDS011;5029;47.378;11.776;2022-07-29T21:49:02;2.43;;;2.23;;
9976;SDS011;5029;47.378;11.776;2022-07-29T21:54:06;2.47;;;2.27;;
9976;SDS011;5029;47.378;11.776;2022-07-29T21:59:13;2.60;;;2.20;;
9976;SDS011;5029;47.378;11.776;2022-07-29T22:04:18;2.40;;;2.20;;
9976;SDS011;5029;47.378;11.776;2022-07-29T22:09:22;2.33;;;2.10;;
9976;SDS011;5029;47.378;11.776;2022-07-29T22:14:26;1.97;;;1.77;;
9976;SDS011;5029;47.378;11.776;2022-07-29T22:19:31;3.13;;;2.00;;
9976;SDS011;5029;47.378;11.776;2022-07-29T22:24:35;2.70;;;2.47;;
9976;SDS011;5029;47.378;11.776;2022-07-29T22:29:38;1.90;;;1.80;;
9976;SDS011;5029;47.378;11.776;2022-07-29T22:34:43;3.47;;;1.77;;
9976;SDS011;5029;47.378;11.776;2022-07-29T22:39:47;1.87;;;1.77;;
9976;SDS011;5029;47.378;11.776;2022-07-29T22:44:51;2.47;;;1.63;;
9976;SDS011;5029;47.378;11.776;2022-07-29T22:49:55;2.37;;;1.90;;
9976;SDS011;5029;47.378;11.776;2022-07-29T22:54:59;2.07;;;1.80;;
9976;SDS011;5029;47.378;11.776;2022-07-29T23:00:05;2.17;;;1.97;;
9976;SDS011;5029;47.378;11.776;2022-07-29T23:05:41;2.00;;;1.80;;
9976;SDS011;5029;47.378;11.776;2022-07-29T23:10:45;1.90;;;1.50;;
9976;SDS011;5029;47.378;11.776;2022-07-29T23:15:49;2.47;;;1.70;;
9976;SDS011;5029;47.378;11.776;2022-07-29T23:20:53;2.03;;;1.67;;
9976;SDS011;5029;47.378;11.776;2022-07-29T23:25:57;4.90;;;1.90;;
9976;SDS011;5029;47.378;11.776;2022-07-29T23:31:01;2.20;;;2.00;;
9976;SDS011;5029;47.378;11.776;2022-07-29T23:36:06;2.27;;;1.90;;
9976;SDS011;5029;47.378;11.776;2022-07-29T23:41:09;3.17;;;1.70;;
9976;SDS011;5029;47.378;11.776;2022-07-29T23:46:13;2.27;;;2.00;;
9976;SDS011;5029;47.378;11.776;2022-07-29T23:51:25;1.93;;;1.73;;
9976;SDS011;5029;47.378;11.776;2022-07-29T23:56:30;1.70;;;1.60;;
